Time;durP1;ratioP1;P1;durP2;ratioP2;P2;SDS_P1;SDS_P2;PMS_P1;PMS_P2;Temp;Humidity;BMP_temperature;BMP_pressure;BME280_temperature;BME280_humidity;BME280_pressure;Samples;Min_cycle;Max_cycle;Signal;HPM_P1;HPM_P2
2022/06/08 00:00:00;;;;;;;;;;;;;;;13.45;91.91;97305.19;10295904;28;19964;-63
2022/06/08 00:04:59;;;;;;;;;;;;;;;13.44;91.65;97306.06;10295564;28;19944;-63
2022/06/08 00:09:59;;;;;;;;;;;;;;;13.42;91.88;97297.44;10295581;28;19920;-63
2022/06/08 00:14:58;;;;;;;;;;;;;;;13.42;91.77;97289.59;10295115;28;19953;-63
2022/06/08 00:19:57;;;;;;;;;;;;;;;13.41;91.99;97295.69;10292123;28;19923;-63
2022/06/08 00:24:55;;;;;;;;;;;;;;;13.39;92.36;97281.81;10295079;28;20392;-63
2022/06/08 00:29:54;;;;;;;;;;;;;;;13.30;93.49;97277.66;10294689;28;20380;-63
2022/06/08 00:34:53;;;;;;;;;;;;;;;13.24;94.33;97287.34;10294788;28;19917;-63
2022/06/08 00:39:51;;;;;;;;;;;;;;;13.21;94.64;97279.56;10294115;28;19909;-63
2022/06/08 00:45:19;;;;;;;;;;;;;;;13.22;94.21;97287.38;10291525;28;19923;-63
2022/06/08 00:50:25;;;;;;;;;;;;;;;13.23;94.19;97277.81;10289725;28;19948;-63
2022/06/08 00:55:26;;;;;;;;;;;;;;;13.24;93.85;97277.78;10293660;28;19956;-63
2022/06/08 01:00:27;;;;;;;;;;;;;;;13.25;93.68;97270.81;10291366;28;20060;-63
2022/06/08 01:05:30;;;;;;;;;;;;;;;13.26;93.83;97269.94;10292794;28;19948;-63
2022/06/08 01:10:41;;;;;;;;;;;;;;;13.25;93.55;97268.22;10293378;28;19945;-63
2022/06/08 01:15:41;;;;;;;;;;;;;;;13.22;93.35;97268.28;10291685;28;19983;-63
2022/06/08 01:20:46;;;;;;;;;;;;;;;13.20;93.32;97264.84;10293495;28;19953;-63
2022/06/08 01:26:03;;;;;;;;;;;;;;;13.19;93.15;97260.50;10293129;28;19955;-63
2022/06/08 01:31:10;;;;;;;;;;;;;;;13.18;93.26;97257.06;10292801;28;19945;-63
2022/06/08 01:36:11;;;;;;;;;;;;;;;12.81;93.54;97204.81;10293235;28;19963;-63
2022/06/08 01:41:25;;;;;;;;;;;;;;;13.07;93.60;97257.28;10289653;28;19957;-63
2022/06/08 01:46:25;;;;;;;;;;;;;;;13.02;93.92;97251.28;10292382;28;19948;-63
2022/06/08 01:51:43;;;;;;;;;;;;;;;13.00;94.10;97253.06;10292684;28;19983;-63
2022/06/08 01:56:44;;;;;;;;;;;;;;;13.00;94.10;97258.28;10300197;28;19949;-63
2022/06/08 02:01:46;;;;;;;;;;;;;;;12.98;94.19;97247.03;10299888;28;19936;-63
2022/06/08 02:06:49;;;;;;;;;;;;;;;12.94;94.19;97248.81;10299239;28;19956;-63
2022/06/08 02:12:01;;;;;;;;;;;;;;;12.86;94.57;97255.03;10300351;28;20368;-63
2022/06/08 02:17:04;;;;;;;;;;;;;;;12.85;94.60;97250.75;10297488;28;19960;-63
2022/06/08 02:22:10;;;;;;;;;;;;;;;12.83;94.45;97252.50;10299355;28;19948;-63
2022/06/08 02:27:22;;;;;;;;;;;;;;;12.79;94.80;97254.31;10298588;28;19953;-63
2022/06/08 02:37:48;;;;;;;;;;;;;;;12.76;94.63;97248.28;10298674;28;20055;-63
2022/06/08 02:42:49;;;;;;;;;;;;;;;12.56;95.02;97248.66;10298812;28;19956;-63
2022/06/08 02:47:50;;;;;;;;;;;;;;;12.40;95.33;97246.28;10298057;28;19941;-63
2022/06/08 02:52:50;;;;;;;;;;;;;;;12.38;95.60;97252.41;10296159;28;19953;-63
2022/06/08 02:57:53;;;;;;;;;;;;;;;12.40;95.39;97246.28;10298092;28;19952;-63
2022/06/08 03:02:55;;;;;;;;;;;;;;;12.29;95.72;97246.47;10298016;28;19956;-63
2022/06/08 03:08:13;;;;;;;;;;;;;;;12.19;96.04;97247.47;10296535;28;19945;-63
2022/06/08 03:13:46;;;;;;;;;;;;;;;12.07;96.07;97253.72;10299058;28;20447;-63
2022/06/08 03:18:45;;;;;;;;;;;;;;;11.98;96.89;97258.19;10266545;28;19956;-63
2022/06/08 03:23:44;;;;;;;;;;;;;;;11.90;97.64;97266.13;10300705;28;19909;-63
2022/06/08 03:28:43;;;;;;;;;;;;;;;11.99;97.60;97271.16;10300687;28;19952;-63
2022/06/08 03:33:41;;;;;;;;;;;;;;;11.98;97.56;97279.84;10300044;28;19923;-63
2022/06/08 03:38:42;;;;;;;;;;;;;;;12.05;97.90;97275.44;10298002;28;20028;-63
2022/06/08 03:43:41;;;;;;;;;;;;;;;12.16;97.47;97283.06;10299469;28;19948;-63
2022/06/08 03:48:41;;;;;;;;;;;;;;;12.07;98.10;97287.53;10299949;28;19952;-63
2022/06/08 03:54:00;;;;;;;;;;;;;;;12.14;98.29;97282.25;10299449;28;19952;-63
2022/06/08 03:58:59;;;;;;;;;;;;;;;12.29;97.68;97287.22;10298837;28;19952;-63
2022/06/08 04:03:58;;;;;;;;;;;;;;;12.47;97.42;97289.56;10298001;28;19918;-63
2022/06/08 04:08:57;;;;;;;;;;;;;;;12.65;97.06;97285.81;10298555;28;20000;-63
2022/06/08 04:13:55;;;;;;;;;;;;;;;12.71;96.79;97288.28;10292540;28;20327;-64
2022/06/08 04:18:55;;;;;;;;;;;;;;;12.87;96.47;97286.28;10295120;28;20395;-64
2022/06/08 04:23:53;;;;;;;;;;;;;;;12.93;96.41;97280.13;10294699;28;19948;-63
2022/06/08 04:28:52;;;;;;;;;;;;;;;13.07;96.21;97280.72;10294424;28;19917;-63
2022/06/08 04:33:53;;;;;;;;;;;;;;;13.24;95.79;97282.16;10291434;28;20678;-63
2022/06/08 04:38:52;;;;;;;;;;;;;;;13.37;95.64;97273.19;10245050;28;20199;-63
2022/06/08 04:43:50;;;;;;;;;;;;;;;13.54;95.24;97278.97;10235457;28;19949;-63
2022/06/08 04:53:27;;;;;;;13.18;9.43;;;;;;;13.87;94.71;97273.06;10344595;27;20204;-62
2022/06/08 04:58:26;;;;;;;12.90;9.02;;;;;;;14.09;94.07;97269.06;10350603;28;20064;-62
2022/06/08 05:03:26;;;;;;;12.63;9.00;;;;;;;14.35;93.42;97267.59;10303143;28;20048;-63
2022/06/08 05:08:25;;;;;;;;;;;;;;;14.62;93.45;97273.91;10373063;28;20056;-63
2022/06/08 05:13:25;;;;;;;13.48;8.23;;;;;;;14.57;91.49;97245.31;10360346;28;19933;-62
2022/06/08 05:18:27;;;;;;;13.10;8.32;;;;;;;14.69;90.50;97258.97;10367974;28;20494;-62
2022/06/08 05:23:31;;;;;;;9.90;7.57;;;;;;;14.72;89.13;97262.38;10368761;28;20029;-62
2022/06/08 05:28:30;;;;;;;11.52;7.55;;;;;;;14.89;88.29;97266.31;10366250;28;20063;-62
2022/06/08 05:33:29;;;;;;;;;;;;;;;15.12;88.28;97263.94;10363558;28;20055;-62
2022/06/08 05:38:28;;;;;;;11.25;7.50;;;;;;;15.29;87.21;97265.22;10325362;28;19909;-62
2022/06/08 05:43:27;;;;;;;10.65;7.50;;;;;;;15.51;87.00;97265.50;10350144;28;20032;-62
2022/06/08 05:48:26;;;;;;;;;;;;;;;15.73;87.17;97266.56;10348372;28;20061;-62
2022/06/08 05:53:25;;;;;;;9.27;6.88;;;;;;;15.86;85.58;97267.97;10313899;28;19931;-62
2022/06/08 05:58:24;;;;;;;6.85;5.95;;;;;;;15.96;84.39;97259.84;10324447;28;20026;-62
2022/06/08 06:03:23;;;;;;;;;;;;;;;16.18;83.31;97260.03;10305285;28;20407;-62
2022/06/08 06:08:21;;;;;;;8.20;5.88;;;;;;;16.44;82.98;97253.94;10292989;28;19978;-62
2022/06/08 06:13:20;;;;;;;;;;;;;;;16.56;82.08;97250.94;10298543;28;20109;-62
2022/06/08 06:18:19;;;;;;;7.05;4.65;;;;;;;16.58;79.78;97251.72;10300049;28;19916;-62
2022/06/08 06:23:18;;;;;;;;;;;;;;;16.74;79.29;97252.06;10300520;28;20105;-62
2022/06/08 06:28:17;;;;;;;6.22;5.10;;;;;;;16.85;78.17;97221.16;10298387;28;19910;-62
2022/06/08 06:33:16;;;;;;;8.02;4.88;;;;;;;17.19;78.73;97248.81;10285483;28;20065;-62
2022/06/08 06:38:15;;;;;;;6.13;4.95;;;;;;;17.47;77.33;97243.44;10299408;28;20051;-62
2022/06/08 06:43:14;;;;;;;9.65;4.75;;;;;;;17.73;76.96;97237.22;10287152;28;20037;-62
2022/06/08 06:48:13;;;;;;;;;;;;;;;17.91;75.25;97232.19;10299042;28;20030;-62
2022/06/08 06:53:13;;;;;;;9.10;4.00;;;;;;;17.65;72.95;97176.28;10335047;28;20008;-63
2022/06/08 06:58:12;;;;;;;5.15;4.22;;;;;;;18.28;70.97;97225.50;10338404;28;20064;-63
2022/06/08 07:03:11;;;;;;;4.10;3.70;;;;;;;18.51;69.35;97228.03;10339294;28;20060;-63
2022/06/08 07:08:10;;;;;;;8.90;4.60;;;;;;;18.69;67.79;97228.19;10334197;28;20048;-62
2022/06/08 07:13:09;;;;;;;3.72;3.38;;;;;;;18.86;64.71;97228.34;10336146;28;20133;-62
2022/06/08 07:18:09;;;;;;;10.75;4.20;;;;;;;19.10;66.19;97226.44;10333458;28;20048;-63
2022/06/08 07:23:08;;;;;;;7.05;4.68;;;;;;;19.31;66.78;97227.25;10318379;28;20057;-62
2022/06/08 07:28:07;;;;;;;5.38;3.63;;;;;;;19.59;66.25;97219.00;10335007;28;20029;-63
2022/06/08 07:33:06;;;;;;;3.63;3.28;;;;;;;19.47;63.44;97166.06;10334855;28;20502;-62
2022/06/08 07:38:05;;;;;;;4.40;3.80;;;;;;;20.04;64.89;97206.41;10335161;28;20021;-63
2022/06/08 07:43:04;;;;;;;6.43;4.25;;;;;;;20.29;63.61;97196.38;10331588;28;20060;-63
2022/06/08 07:53:21;;;;;;;12.57;4.43;;;;;;;20.61;62.93;97209.78;10334332;28;20081;-63
2022/06/08 07:58:20;;;;;;;9.73;3.72;;;;;;;20.85;63.02;97212.97;10311881;28;20025;-62
2022/06/08 08:03:19;;;;;;;4.60;3.90;;;;;;;21.06;63.09;97218.91;10293560;28;20058;-62
2022/06/08 08:08:19;;;;;;;6.18;3.90;;;;;;;21.17;60.59;97215.69;10320328;28;20072;-62
2022/06/08 08:13:18;;;;;;;5.60;3.72;;;;;;;21.12;57.12;97205.41;10333986;28;20068;-64
2022/06/08 08:18:17;;;;;;;7.35;3.85;;;;;;;21.27;59.40;97209.06;10332811;28;20057;-65
2022/06/08 08:23:16;;;;;;;8.82;3.97;;;;;;;21.49;58.66;97206.09;10326650;28;20071;-65
2022/06/08 08:28:15;;;;;;;4.22;3.60;;;;;;;21.53;58.20;97202.38;10330501;28;20037;-65
2022/06/08 08:33:14;;;;;;;6.03;4.22;;;;;;;21.60;56.86;97207.34;10314330;28;20136;-62
2022/06/08 08:38:13;;;;;;;4.82;3.53;;;;;;;21.64;56.50;97208.84;10332408;28;20069;-62
2022/06/08 08:43:17;;;;;;;5.80;3.22;;;;;;;21.65;53.46;97202.66;10332918;28;20060;-62
2022/06/08 08:48:26;;;;;;;3.47;3.10;;;;;;;21.57;52.74;97189.00;10304323;28;20119;-62
2022/06/08 08:53:32;;;;;;;6.07;3.50;;;;;;;21.75;52.33;97188.00;10327309;28;20069;-62
2022/06/08 08:58:38;;;;;;;3.83;3.15;;;;;;;21.76;52.28;97180.00;10306969;28;20495;-62
2022/06/08 09:03:40;;;;;;;4.22;3.00;;;;;;;21.91;51.34;97182.72;10305311;28;20061;-62
2022/06/08 09:08:43;;;;;;;5.45;2.85;;;;;;;22.15;51.46;97169.94;10326314;28;20060;-62
2022/06/08 09:13:50;;;;;;;5.25;2.97;;;;;;;22.31;50.50;97173.41;10331353;28;20127;-62
2022/06/08 09:18:49;;;;;;;3.90;3.40;;;;;;;22.29;51.01;97158.56;10334281;28;20061;-62
2022/06/08 09:23:51;;;;;;;4.22;2.85;;;;;;;22.38;48.72;97150.13;10332802;28;20104;-62
2022/06/08 09:29:13;;;;;;;4.00;2.90;;;;;;;22.51;48.56;97156.41;10335683;28;20053;-62
2022/06/08 09:34:17;;;;;;;7.53;3.15;;;;;;;22.56;49.30;97149.03;10335763;28;20676;-62
2022/06/08 09:39:20;;;;;;;4.35;3.25;;;;;;;22.72;50.70;97130.47;10341064;28;20065;-62
2022/06/08 09:44:26;;;;;;;3.17;2.88;;;;;;;22.83;47.83;97123.69;10343062;28;20721;-62
2022/06/08 09:55:26;;;;;;;3.88;2.65;;;;;;;22.65;46.63;97122.97;10342879;28;20065;-62
2022/06/08 10:00:33;;;;;;;5.22;2.83;;;;;;;22.80;48.02;97114.16;10342272;28;20486;-62
2022/06/08 10:05:40;;;;;;;5.05;3.03;;;;;;;22.93;47.42;97082.53;10330824;28;20065;-62
2022/06/08 10:10:49;;;;;;;5.45;2.88;;;;;;;23.23;48.59;97096.50;10333239;28;20471;-62
2022/06/08 10:15:51;;;;;;;3.15;2.60;;;;;;;23.10;47.93;97105.31;10307029;28;20534;-62
2022/06/08 10:20:54;;;;;;;4.18;2.60;;;;;;;23.44;49.27;97096.06;10296995;28;20077;-62
2022/06/08 10:26:00;;;;;;;3.28;2.97;;;;;;;23.59;47.93;97100.44;10333007;28;20076;-62
2022/06/08 10:31:01;;;;;;;3.47;2.90;;;;;;;23.02;47.98;97034.31;10322462;28;20053;-62
2022/06/08 10:36:01;;;;;;;3.90;3.10;;;;;;;23.57;48.68;97081.13;10327299;28;20187;-62
2022/06/08 10:41:02;;;;;;;3.70;2.60;;;;;;;23.78;48.01;97073.59;10331607;28;20060;-62
2022/06/08 10:46:22;;;;;;;4.93;2.80;;;;;;;23.86;47.32;97078.38;10333979;28;20076;-62
2022/06/08 10:51:35;;;;;;;3.45;2.90;;;;;;;23.99;47.75;97066.03;10332540;28;20139;-62
2022/06/08 10:56:38;;;;;;;4.32;3.05;;;;;;;24.09;47.50;97073.38;10331163;28;20080;-62
2022/06/08 11:01:48;;;;;;;6.25;3.13;;;;;;;24.23;46.66;97065.38;10331112;28;20064;-62
2022/06/08 11:07:05;;;;;;;4.50;2.72;;;;;;;24.31;46.11;97052.47;10305839;28;20474;-63
2022/06/08 11:12:30;;;;;;;4.60;2.80;;;;;;;24.92;47.51;97046.53;10327610;28;20491;-63
2022/06/08 11:17:48;;;;;;;4.68;2.92;;;;;;;25.46;43.88;97057.72;10333761;28;20061;-62
2022/06/08 11:22:55;;;;;;;5.10;2.90;;;;;;;25.40;42.71;97049.31;10315966;28;20068;-63
2022/06/08 11:28:44;;;;;;;3.63;2.97;;;;;;;25.35;42.72;97046.16;10294088;28;20061;-63
2022/06/08 11:34:18;;;;;;;3.55;2.65;;;;;;;24.87;44.83;97044.22;10292435;28;20084;-65
2022/06/08 11:39:27;;;;;;;3.08;2.72;;;;;;;24.77;46.49;97041.31;10292205;28;20080;-65
2022/06/08 11:44:33;;;;;;;4.47;3.20;;;;;;;24.70;45.88;97018.84;10306049;28;20103;-65
2022/06/08 11:49:42;;;;;;;3.42;2.45;;;;;;;24.66;44.76;97038.56;10334016;28;20080;-63
2022/06/08 11:54:41;;;;;;;3.30;2.90;;;;;;;24.74;45.07;97033.59;10333786;28;20064;-62
2022/06/08 11:59:44;;;;;;;5.85;3.00;;;;;;;25.15;45.87;97024.53;10325755;28;20037;-63
2022/06/08 12:04:47;;;;;;;4.68;3.00;;;;;;;25.38;44.65;97019.38;10322530;28;20060;-63
2022/06/08 12:09:46;;;;;;;3.15;2.65;;;;;;;25.19;44.73;96994.16;10323505;28;20072;-63
2022/06/08 12:14:45;;;;;;;5.82;3.30;;;;;;;25.39;43.52;97007.81;10323955;28;20076;-63
2022/06/08 12:19:56;;;;;;;3.38;2.85;;;;;;;25.44;44.11;96965.81;10330582;28;20064;-63
2022/06/08 12:25:21;;;;;;;3.92;2.85;;;;;;;25.94;44.53;97003.72;10331422;28;20089;-63
2022/06/08 12:30:51;;;;;;;4.47;3.10;;;;;;;26.27;44.62;97003.00;10321337;28;20061;-63
2022/06/08 12:36:19;;;;;;;5.05;2.85;;;;;;;26.10;42.78;96995.44;10330689;28;20069;-63
2022/06/08 12:41:18;;;;;;;4.10;3.25;;;;;;;25.78;44.28;96973.94;10331459;28;20067;-63
2022/06/08 12:46:34;;;;;;;3.72;3.20;;;;;;;25.73;44.54;96995.56;10332712;28;20053;-63
2022/06/08 12:51:38;;;;;;;5.97;3.33;;;;;;;25.95;43.58;96984.16;10330689;28;20077;-63
2022/06/08 12:56:37;;;;;;;5.72;3.05;;;;;;;26.16;44.13;96982.53;10333386;28;20728;-63
2022/06/08 13:01:36;;;;;;;3.60;3.10;;;;;;;26.06;43.49;96981.53;10329040;28;20064;-63
2022/06/08 13:06:35;;;;;;;3.97;3.30;;;;;;;25.85;42.66;96977.84;10331128;28;20068;-65
2022/06/08 13:11:34;;;;;;;3.83;3.00;;;;;;;25.80;41.98;96974.69;10332416;28;20120;-64
2022/06/08 13:16:33;;;;;;;3.00;2.80;;;;;;;25.66;43.17;96970.41;10340845;28;20479;-63
2022/06/08 13:21:32;;;;;;;3.58;3.25;;;;;;;25.87;42.65;96970.59;10338239;28;20678;-64
2022/06/08 13:26:34;;;;;;;5.35;2.90;;;;;;;26.25;42.82;96953.53;10340462;28;20038;-64
2022/06/08 13:31:33;;;;;;;3.42;2.90;;;;;;;26.66;41.43;96946.81;10335754;28;20061;-64
2022/06/08 13:36:34;;;;;;;6.60;3.70;;;;;;;26.82;40.66;96941.97;10338209;28;20822;-64
2022/06/08 13:41:35;;;;;;;3.70;2.45;;;;;;;26.70;40.16;96942.94;10334663;28;20053;-64
2022/06/08 13:46:34;;;;;;;3.70;2.70;;;;;;;26.62;39.52;96950.69;10336004;28;20486;-64
2022/06/08 13:51:33;;;;;;;3.60;2.92;;;;;;;25.98;40.49;96962.66;10333086;28;20045;-64
2022/06/08 13:56:34;;;;;;;4.22;2.80;;;;;;;25.95;42.18;96965.56;10335909;28;20061;-64
2022/06/08 14:01:35;;;;;;;4.70;2.70;;;;;;;25.73;42.42;96967.16;10329579;28;20053;-64
2022/06/08 14:17:11;;;;;;;3.63;2.55;;;;;;;25.97;42.42;96955.63;10337069;28;20502;-64
2022/06/08 14:22:18;;;;;;;4.03;2.72;;;;;;;26.04;41.03;96948.91;10338720;28;20061;-64
2022/06/08 14:27:19;;;;;;;3.03;2.72;;;;;;;26.23;40.65;96956.34;10336460;28;20064;-64
2022/06/08 14:32:25;;;;;;;5.10;2.97;;;;;;;25.97;40.79;96968.09;10340979;28;20074;-64
2022/06/08 14:37:24;;;;;;;2.67;2.40;;;;;;;25.76;41.36;96957.25;10339198;28;20091;-64
2022/06/08 14:42:23;;;;;;;4.28;2.47;;;;;;;25.55;42.18;96965.91;10340115;28;20025;-64
2022/06/08 14:47:26;;;;;;;4.97;2.70;;;;;;;25.74;40.86;96963.56;10333529;28;20566;-64
2022/06/08 14:52:26;;;;;;;4.55;3.20;;;;;;;25.91;41.37;96954.28;10317117;28;20076;-63
2022/06/08 14:57:31;;;;;;;5.90;2.90;;;;;;;26.06;41.90;96946.94;10345051;28;20064;-64
2022/06/08 15:02:36;;;;;;;5.10;2.78;;;;;;;25.84;41.97;96969.03;10338396;28;20049;-63
2022/06/08 15:07:36;;;;;;;3.80;2.60;;;;;;;25.37;42.78;96938.00;10337625;28;20646;-63
2022/06/08 15:12:36;;;;;;;4.70;2.90;;;;;;;25.39;44.15;96949.38;10339726;28;20068;-63
2022/06/08 15:17:36;;;;;;;5.07;3.10;;;;;;;25.06;44.97;96922.53;10365570;28;20057;-63
2022/06/08 15:22:35;;;;;;;5.90;2.83;;;;;;;24.77;45.82;96937.00;10306373;28;20452;-63
2022/06/08 15:27:39;;;;;;;3.47;2.80;;;;;;;24.64;47.09;96955.63;10293466;28;20419;-63
2022/06/08 15:32:38;;;;;;;4.95;3.10;;;;;;;24.59;47.16;96947.97;10359337;28;20103;-63
2022/06/08 15:37:40;;;;;;;4.75;3.53;;;;;;;24.43;47.69;96965.94;10334834;28;20033;-63
2022/06/08 15:42:38;;;;;;;4.53;3.00;;;;;;;24.21;48.30;96974.50;10331478;28;20532;-63
2022/06/08 15:47:44;;;;;;;3.63;3.00;;;;;;;24.21;49.33;96995.72;10333994;28;20025;-63
2022/06/08 15:52:46;;;;;;;4.97;3.17;;;;;;;24.02;49.30;96981.00;10333040;28;20084;-63
2022/06/08 15:57:46;;;;;;;3.55;3.10;;;;;;;23.86;49.48;96977.69;10330856;28;20076;-63
2022/06/08 16:02:45;;;;;;;3.78;2.97;;;;;;;23.89;49.87;97006.66;10331222;28;20078;-63
2022/06/08 16:07:45;;;;;;;4.47;3.53;;;;;;;23.76;50.00;96979.28;10313260;28;20045;-63
2022/06/08 16:12:45;;;;;;;5.43;3.20;;;;;;;23.82;49.80;97005.38;10302000;28;20806;-62
2022/06/08 16:17:44;;;;;;;4.72;3.25;;;;;;;23.80;49.80;96997.53;10311716;28;20611;-63
2022/06/08 16:22:44;;;;;;;7.18;3.15;;;;;;;23.70;49.74;97009.69;10326405;28;20459;-64
2022/06/08 16:27:45;;;;;;;3.63;3.10;;;;;;;23.45;50.28;96994.53;10336871;28;20069;-63
2022/06/08 16:32:44;;;;;;;5.57;4.78;;;;;;;23.49;52.79;97001.34;10331790;28;20068;-63
2022/06/08 16:37:43;;;;;;;6.20;5.10;;;;;;;23.32;55.41;97006.84;10332044;28;20116;-63
2022/06/08 16:42:42;;;;;;;6.30;4.32;;;;;;;23.08;56.13;96991.59;10336040;28;20439;-63
2022/06/08 16:47:44;;;;;;;8.98;4.85;;;;;;;23.06;57.06;97000.56;10337801;28;20056;-64
2022/06/08 16:52:43;;;;;;;6.78;4.93;;;;;;;23.02;57.46;97005.19;10332691;28;20207;-63
2022/06/08 17:03:00;;;;;;;6.53;4.53;;;;;;;22.68;58.31;96986.13;10329564;28;20057;-64
2022/06/08 17:07:59;;;;;;;7.00;4.72;;;;;;;22.79;58.90;97015.44;10334834;28;20463;-63
2022/06/08 17:12:59;;;;;;;6.68;4.03;;;;;;;22.59;58.96;96999.91;10326565;28;20057;-63
2022/06/08 17:17:58;;;;;;;8.73;4.35;;;;;;;22.58;58.93;97030.81;10334210;28;20060;-63
2022/06/08 17:22:57;;;;;;;4.82;3.50;;;;;;;22.43;59.00;97031.72;10334605;28;20061;-63
2022/06/08 17:27:55;;;;;;;6.15;3.35;;;;;;;22.29;59.09;97032.56;10349541;28;20129;-64
2022/06/08 17:32:54;;;;;;;4.78;3.47;;;;;;;22.23;59.92;97059.38;10322438;28;20037;-63
2022/06/08 17:37:53;;;;;;;7.80;3.05;;;;;;;21.95;62.43;97054.81;10364794;28;20706;-63
2022/06/08 17:42:52;;;;;;;10.25;3.13;;;;;;;21.61;63.71;97066.44;10330299;28;20034;-63
2022/06/08 17:47:54;;;;;;;5.95;3.40;;;;;;;21.20;67.79;97093.34;10333481;28;20057;-63
2022/06/08 17:52:53;;;;;;;12.35;4.63;;;;;;;20.59;72.12;97093.00;10332276;28;20077;-63
2022/06/08 17:57:53;;;;;;;9.40;4.63;;;;;;;19.93;77.12;97090.19;10335977;28;20104;-63
2022/06/08 18:02:54;;;;;;;10.15;4.72;;;;;;;19.26;80.56;97094.25;10340662;28;20064;-63
2022/06/08 18:07:53;;;;;;;8.75;4.70;;;;;;;18.86;82.78;97096.91;10333353;28;20075;-63
2022/06/08 18:12:53;;;;;;;8.65;4.75;;;;;;;18.52;85.41;97100.97;10315455;28;20030;-63
2022/06/08 18:17:52;;;;;;;8.30;5.30;;;;;;;18.12;88.50;97093.94;10297560;28;20065;-63
2022/06/08 18:22:55;;;;;;;8.25;5.13;;;;;;;18.04;90.58;97101.31;10350836;28;20076;-63
2022/06/08 18:27:57;;;;;;;8.40;4.47;;;;;;;17.90;90.68;97109.75;10337662;28;20065;-63
2022/06/08 18:32:57;;;;;;;6.78;4.70;;;;;;;17.54;91.53;97070.91;10335471;28;20395;-63
2022/06/08 18:37:57;;;;;;;6.13;4.20;;;;;;;17.37;91.56;97052.38;10337082;28;20060;-63
2022/06/08 18:43:03;;;;;;;6.63;4.55;;;;;;;17.69;91.43;97109.66;10337771;28;20052;-63
2022/06/08 18:48:02;;;;;;;7.43;4.78;;;;;;;17.74;91.60;97119.97;10333476;28;20069;-63
2022/06/08 18:53:02;;;;;;;9.88;4.90;;;;;;;17.59;92.44;97105.69;10326657;28;20682;-63
2022/06/08 18:58:02;;;;;;;8.45;4.97;;;;;;;17.64;92.44;97119.47;10335608;28;20060;-63
2022/06/08 19:03:02;;;;;;;10.43;5.30;;;;;;;17.60;92.89;97123.13;10339554;28;20063;-63
2022/06/08 19:08:03;;;;;;;7.60;4.70;;;;;;;17.63;93.19;97132.66;10332234;28;20073;-63
2022/06/08 19:13:02;;;;;;;6.47;4.13;;;;;;;17.63;93.38;97136.13;10309097;28;20057;-63
2022/06/08 19:23:22;;;;;;;6.57;4.25;;;;;;;17.47;94.63;97133.25;10296111;28;20081;-62
2022/06/08 19:28:22;;;;;;;6.65;4.40;;;;;;;17.42;94.29;97124.69;10331713;28;20073;-62
2022/06/08 19:33:44;;;;;;;6.28;4.30;;;;;;;17.33;94.85;97128.53;10320639;28;20697;-63
2022/06/08 19:38:43;;;;;;;5.78;4.05;;;;;;;17.32;94.34;97139.09;10316695;28;20087;-62
2022/06/08 19:43:43;;;;;;;5.85;3.85;;;;;;;17.36;94.64;97135.44;10324722;28;20108;-62
2022/06/08 19:48:43;;;;;;;7.28;4.15;;;;;;;17.33;94.98;97122.41;10324526;28;20081;-62
2022/06/08 19:53:42;;;;;;;6.97;4.30;;;;;;;17.43;95.15;97138.69;10293034;28;20062;-63
2022/06/08 19:58:45;;;;;;;6.78;4.18;;;;;;;17.41;95.21;97151.84;10308505;28;20077;-63
2022/06/08 20:03:44;;;;;;;7.38;4.78;;;;;;;17.32;95.40;97150.41;10317001;28;20068;-63
2022/06/08 20:08:45;;;;;;;6.53;4.93;;;;;;;17.23;95.91;97145.53;10331257;28;20076;-63
2022/06/08 20:13:45;;;;;;;5.82;4.30;;;;;;;17.30;95.88;97146.16;10333311;28;20068;-62
2022/06/08 20:18:44;;;;;;;5.40;4.10;;;;;;;17.30;95.24;97136.50;10333887;28;20482;-63
2022/06/08 20:23:45;;;;;;;5.15;3.53;;;;;;;17.34;94.76;97150.38;10338910;28;20840;-63
2022/06/08 20:28:44;;;;;;;4.15;3.15;;;;;;;17.19;94.66;97116.84;10294011;28;20061;-63
2022/06/08 20:33:43;;;;;;;4.47;3.05;;;;;;;17.27;94.50;97131.38;10294932;28;20065;-63
2022/06/08 20:38:44;;;;;;;6.72;3.17;;;;;;;17.19;95.13;97133.47;10293732;28;20072;-63
2022/06/08 20:43:42;;;;;;;6.55;3.22;;;;;;;17.16;95.03;97122.22;10303150;28;20056;-62
2022/06/08 20:48:41;;;;;;;4.57;3.47;;;;;;;17.14;94.41;97122.25;10334070;28;20029;-63
2022/06/08 20:53:41;;;;;;;;;;;;;;;17.17;94.54;97116.94;10315065;28;20057;-63
2022/06/08 20:58:41;;;;;;;5.28;2.80;;;;;;;17.16;94.28;97099.47;10312701;28;20359;-63
2022/06/08 21:03:40;;;;;;;5.80;3.22;;;;;;;17.08;94.08;97098.91;10332254;28;20060;-63
2022/06/08 21:08:41;;;;;;;7.20;3.13;;;;;;;17.02;94.04;97099.97;10333602;28;20037;-63
2022/06/08 21:13:40;;;;;;;4.07;2.58;;;;;;;16.83;93.63;97084.09;10330339;28;20081;-63
2022/06/08 21:18:39;;;;;;;3.70;2.40;;;;;;;16.91;92.99;97092.53;10330184;28;20076;-63
2022/06/08 21:23:42;;;;;;;4.57;2.40;;;;;;;16.86;92.73;97088.38;10328665;28;20076;-63
2022/06/08 21:28:41;;;;;;;3.35;2.20;;;;;;;16.88;92.44;97092.63;10329744;28;20486;-63
2022/06/08 21:33:40;;;;;;;12.57;2.55;;;;;;;16.85;91.59;97087.50;10315990;28;20065;-63
2022/06/08 21:38:39;;;;;;;3.25;1.75;;;;;;;16.82;90.96;97077.16;10296466;28;20044;-63
2022/06/08 21:43:38;;;;;;;;;;;;;;;16.80;89.56;97068.47;10309696;28;20113;-63
2022/06/08 21:48:37;;;;;;;8.67;2.80;;;;;;;16.85;89.18;97069.16;10335046;28;19956;-63
2022/06/08 21:53:36;;;;;;;;;;;;;;;16.95;87.63;97071.44;10328935;28;20108;-63
2022/06/08 21:58:35;;;;;;;2.83;2.10;;;;;;;17.08;88.47;97072.72;10308307;28;19913;-63
2022/06/08 22:03:36;;;;;;;;;;;;;;;17.08;89.22;97062.22;10332014;28;20041;-63
2022/06/08 22:08:36;;;;;;;2.40;1.90;;;;;;;17.00;89.46;97069.50;10308687;28;19956;-63
2022/06/08 22:13:36;;;;;;;3.25;2.00;;;;;;;16.99;88.73;97063.41;10295508;28;20077;-63
2022/06/08 22:18:35;;;;;;;4.78;1.98;;;;;;;16.99;89.03;97050.31;10297031;28;20076;-63
2022/06/08 22:23:35;;;;;;;1.90;1.80;;;;;;;17.01;89.27;97045.03;10297075;28;20038;-63
2022/06/08 22:28:35;;;;;;;3.05;2.00;;;;;;;16.98;88.68;97042.50;10314768;28;20664;-63
2022/06/08 22:33:34;;;;;;;5.90;3.80;;;;;;;16.98;89.99;97034.63;10329265;28;20065;-63
2022/06/08 22:38:34;;;;;;;7.15;4.43;;;;;;;16.97;90.85;97027.69;10337728;28;20133;-63
2022/06/08 22:43:33;;;;;;;8.23;5.00;;;;;;;16.79;92.25;97009.09;10309964;28;20458;-63
2022/06/08 22:48:32;;;;;;;7.60;5.32;;;;;;;16.73;92.45;96994.47;10337393;28;20060;-63
2022/06/08 22:53:33;;;;;;;7.35;5.32;;;;;;;16.94;93.23;97023.44;10335622;28;20034;-63
2022/06/08 22:58:33;;;;;;;6.57;5.00;;;;;;;16.87;93.44;97019.34;10335491;28;20588;-63
2022/06/08 23:03:33;;;;;;;7.43;5.20;;;;;;;16.85;93.64;97008.91;10334933;28;20498;-63
2022/06/08 23:08:32;;;;;;;8.00;4.88;;;;;;;16.85;93.76;97014.13;10336228;28;20060;-63
2022/06/08 23:13:31;;;;;;;6.97;4.80;;;;;;;16.69;93.81;97000.72;10330285;28;20060;-63
2022/06/08 23:23:47;;;;;;;7.10;4.90;;;;;;;16.76;93.68;96998.72;10332421;28;20053;-63
2022/06/08 23:28:46;;;;;;;7.55;5.38;;;;;;;16.78;93.80;97007.41;10323546;28;20065;-63
2022/06/08 23:33:45;;;;;;;8.35;5.25;;;;;;;16.70;94.41;97002.44;10326283;28;20538;-63
2022/06/08 23:38:44;;;;;;;;;;;;;;;16.70;94.53;97012.09;10339114;28;20506;-63
2022/06/08 23:43:43;;;;;;;9.13;5.83;;;;;;;16.45;94.66;96971.06;10309211;28;19940;-63
2022/06/08 23:48:42;;;;;;;;;;;;;;;16.60;95.21;96992.34;10338485;28;20384;-63
2022/06/08 23:53:46;;;;;;;8.30;5.33;;;;;;;16.59;95.45;96995.91;10334906;28;19960;-63
2022/06/08 23:58:47;;;;;;;6.18;4.15;;;;;;;16.59;95.41;96980.19;10327714;28;20479;-63
